sensor_id;sensor_type;location;lat;lon;timestamp;pressure;altitude;pressure_sealevel;temperature;humidity
29569;BME280;16501;51.462;14.346;2023-05-07T00:00:34;100635.34;;;7.99;100.00
29569;BME280;16501;51.462;14.346;2023-05-07T00:03:00;100636.91;;;8.00;100.00
29569;BME280;16501;51.462;14.346;2023-05-07T00:05:26;100639.59;;;8.04;100.00
29569;BME280;16501;51.462;14.346;2023-05-07T00:07:51;100640.16;;;7.99;100.00
29569;BME280;16501;51.462;14.346;2023-05-07T00:10:18;100648.09;;;8.00;100.00
29569;BME280;16501;51.462;14.346;2023-05-07T00:12:43;100649.31;;;8.12;100.00
29569;BME280;16501;51.462;14.346;2023-05-07T00:15:08;100644.06;;;8.01;100.00
29569;BME280;16501;51.462;14.346;2023-05-07T00:17:34;100635.91;;;7.94;100.00
29569;BME280;16501;51.462;14.346;2023-05-07T00:19:59;100652.78;;;8.03;100.00
29569;BME280;16501;51.462;14.346;2023-05-07T00:22:24;100642.94;;;7.99;100.00
29569;BME280;16501;51.462;14.346;2023-05-07T00:24:50;100643.06;;;7.95;100.00
29569;BME280;16501;51.462;14.346;2023-05-07T00:27:15;100652.66;;;7.94;100.00
29569;BME280;16501;51.462;14.346;2023-05-07T00:29:41;100646.19;;;7.97;100.00
29569;BME280;16501;51.462;14.346;2023-05-07T00:32:06;100628.06;;;7.76;100.00
29569;BME280;16501;51.462;14.346;2023-05-07T00:34:31;100637.03;;;7.84;100.00
29569;BME280;16501;51.462;14.346;2023-05-07T00:36:56;100646.88;;;8.01;100.00
29569;BME280;16501;51.462;14.346;2023-05-07T00:39:22;100635.13;;;7.81;100.00
29569;BME280;16501;51.462;14.346;2023-05-07T00:41:47;100645.72;;;7.86;100.00
29569;BME280;16501;51.462;14.346;2023-05-07T00:44:13;100653.78;;;7.84;100.00
29569;BME280;16501;51.462;14.346;2023-05-07T00:46:39;100644.72;;;7.80;100.00
29569;BME280;16501;51.462;14.346;2023-05-07T00:49:05;100640.81;;;7.77;100.00
29569;BME280;16501;51.462;14.346;2023-05-07T00:51:31;100655.88;;;7.80;100.00
29569;BME280;16501;51.462;14.346;2023-05-07T00:53:56;100665.50;;;7.79;100.00
29569;BME280;16501;51.462;14.346;2023-05-07T00:56:22;100662.81;;;7.75;100.00
29569;BME280;16501;51.462;14.346;2023-05-07T00:58:48;100652.72;;;7.65;100.00
29569;BME280;16501;51.462;14.346;2023-05-07T01:01:13;100644.69;;;7.67;100.00
29569;BME280;16501;51.462;14.346;2023-05-07T01:03:40;100663.81;;;7.81;100.00
29569;BME280;16501;51.462;14.346;2023-05-07T01:06:06;100652.03;;;7.61;100.00
29569;BME280;16501;51.462;14.346;2023-05-07T01:08:32;100660.91;;;7.72;100.00
29569;BME280;16501;51.462;14.346;2023-05-07T01:11:00;100661.66;;;7.72;100.00
29569;BME280;16501;51.462;14.346;2023-05-07T01:13:26;100654.28;;;7.66;100.00
29569;BME280;16501;51.462;14.346;2023-05-07T01:15:52;100672.16;;;7.68;100.00
29569;BME280;16501;51.462;14.346;2023-05-07T01:18:17;100677.75;;;7.81;100.00
29569;BME280;16501;51.462;14.346;2023-05-07T01:20:42;100670.47;;;7.71;100.00
29569;BME280;16501;51.462;14.346;2023-05-07T01:23:08;100675.19;;;7.74;100.00
29569;BME280;16501;51.462;14.346;2023-05-07T01:25:35;100643.00;;;7.57;100.00
29569;BME280;16501;51.462;14.346;2023-05-07T01:28:00;100669.94;;;7.76;100.00
29569;BME280;16501;51.462;14.346;2023-05-07T01:30:27;100670.53;;;7.84;100.00
29569;BME280;16501;51.462;14.346;2023-05-07T01:33:00;100658.09;;;7.72;100.00
29569;BME280;16501;51.462;14.346;2023-05-07T01:35:32;100670.16;;;7.82;100.00
29569;BME280;16501;51.462;14.346;2023-05-07T01:38:00;100658.88;;;7.72;100.00
29569;BME280;16501;51.462;14.346;2023-05-07T01:40:26;100662.13;;;7.71;100.00
29569;BME280;16501;51.462;14.346;2023-05-07T01:42:52;100675.19;;;7.87;100.00
29569;BME280;16501;51.462;14.346;2023-05-07T01:45:19;100685.03;;;7.91;100.00
29569;BME280;16501;51.462;14.346;2023-05-07T01:47:45;100665.03;;;7.80;100.00
29569;BME280;16501;51.462;14.346;2023-05-07T01:50:11;100673.88;;;7.79;100.00
29569;BME280;16501;51.462;14.346;2023-05-07T01:52:40;100685.13;;;7.75;100.00
29569;BME280;16501;51.462;14.346;2023-05-07T01:55:06;100664.22;;;7.67;100.00
29569;BME280;16501;51.462;14.346;2023-05-07T01:57:31;100666.81;;;7.74;100.00
29569;BME280;16501;51.462;14.346;2023-05-07T01:59:57;100690.84;;;7.84;100.00
29569;BME280;16501;51.462;14.346;2023-05-07T02:02:22;100672.28;;;7.78;100.00
29569;BME280;16501;51.462;14.346;2023-05-07T02:04:47;100670.81;;;7.73;100.00
29569;BME280;16501;51.462;14.346;2023-05-07T02:07:12;100684.34;;;7.74;100.00
29569;BME280;16501;51.462;14.346;2023-05-07T02:09:38;100654.81;;;7.48;100.00
29569;BME280;16501;51.462;14.346;2023-05-07T02:12:04;100682.09;;;7.69;100.00
29569;BME280;16501;51.462;14.346;2023-05-07T02:14:29;100671.03;;;7.66;100.00
29569;BME280;16501;51.462;14.346;2023-05-07T02:16:54;100681.22;;;7.72;100.00
29569;BME280;16501;51.462;14.346;2023-05-07T02:19:19;100680.34;;;7.76;100.00
29569;BME280;16501;51.462;14.346;2023-05-07T02:21:46;100677.31;;;7.70;100.00
29569;BME280;16501;51.462;14.346;2023-05-07T02:24:11;100679.44;;;7.79;100.00
29569;BME280;16501;51.462;14.346;2023-05-07T02:26:37;100657.88;;;7.66;100.00
29569;BME280;16501;51.462;14.346;2023-05-07T02:29:02;100676.16;;;7.67;100.00
29569;BME280;16501;51.462;14.346;2023-05-07T02:31:27;100681.63;;;7.58;100.00
29569;BME280;16501;51.462;14.346;2023-05-07T02:33:52;100671.84;;;7.66;100.00
29569;BME280;16501;51.462;14.346;2023-05-07T02:36:18;100677.06;;;7.64;100.00
29569;BME280;16501;51.462;14.346;2023-05-07T02:38:43;100668.78;;;7.61;100.00
29569;BME280;16501;51.462;14.346;2023-05-07T02:41:08;100680.75;;;7.61;100.00
29569;BME280;16501;51.462;14.346;2023-05-07T02:43:34;100668.41;;;7.46;100.00
29569;BME280;16501;51.462;14.346;2023-05-07T02:46:06;100697.84;;;7.63;100.00
29569;BME280;16501;51.462;14.346;2023-05-07T02:48:32;100685.97;;;7.59;100.00
29569;BME280;16501;51.462;14.346;2023-05-07T02:50:58;100689.47;;;7.63;100.00
29569;BME280;16501;51.462;14.346;2023-05-07T02:53:24;100686.22;;;7.65;100.00
29569;BME280;16501;51.462;14.346;2023-05-07T02:55:58;100679.84;;;7.64;100.00
29569;BME280;16501;51.462;14.346;2023-05-07T02:58:24;100697.28;;;7.68;100.00
29569;BME280;16501;51.462;14.346;2023-05-07T03:00:50;100693.25;;;7.69;100.00
29569;BME280;16501;51.462;14.346;2023-05-07T03:03:15;100676.72;;;7.62;100.00
29569;BME280;16501;51.462;14.346;2023-05-07T03:05:40;100690.25;;;7.77;100.00
29569;BME280;16501;51.462;14.346;2023-05-07T03:08:06;100659.31;;;7.58;100.00
29569;BME280;16501;51.462;14.346;2023-05-07T03:10:31;100688.38;;;7.73;100.00
29569;BME280;16501;51.462;14.346;2023-05-07T03:12:57;100670.94;;;7.69;100.00
29569;BME280;16501;51.462;14.346;2023-05-07T03:15:22;100660.06;;;7.59;100.00
29569;BME280;16501;51.462;14.346;2023-05-07T03:17:48;100681.88;;;7.77;100.00
29569;BME280;16501;51.462;14.346;2023-05-07T03:20:13;100671.69;;;7.57;100.00
29569;BME280;16501;51.462;14.346;2023-05-07T03:22:39;100683.19;;;7.59;100.00
29569;BME280;16501;51.462;14.346;2023-05-07T03:25:05;100683.00;;;7.66;100.00
29569;BME280;16501;51.462;14.346;2023-05-07T03:27:30;100694.84;;;7.70;100.00
29569;BME280;16501;51.462;14.346;2023-05-07T03:29:56;100681.63;;;7.58;100.00
29569;BME280;16501;51.462;14.346;2023-05-07T03:32:21;100686.56;;;7.67;100.00
29569;BME280;16501;51.462;14.346;2023-05-07T03:34:46;100691.00;;;7.64;100.00
29569;BME280;16501;51.462;14.346;2023-05-07T03:37:12;100695.28;;;7.69;100.00
29569;BME280;16501;51.462;14.346;2023-05-07T03:39:38;100669.09;;;7.50;100.00
29569;BME280;16501;51.462;14.346;2023-05-07T03:42:03;100679.16;;;7.60;100.00
29569;BME280;16501;51.462;14.346;2023-05-07T03:44:28;100695.94;;;7.73;100.00
29569;BME280;16501;51.462;14.346;2023-05-07T03:46:54;100681.97;;;7.60;100.00
29569;BME280;16501;51.462;14.346;2023-05-07T03:49:20;100673.69;;;7.57;100.00
29569;BME280;16501;51.462;14.346;2023-05-07T03:51:45;100686.31;;;7.61;100.00
29569;BME280;16501;51.462;14.346;2023-05-07T03:54:10;100690.53;;;7.53;100.00
29569;BME280;16501;51.462;14.346;2023-05-07T03:56:36;100699.69;;;7.53;100.00
29569;BME280;16501;51.462;14.346;2023-05-07T03:59:01;100699.69;;;7.53;100.00
29569;BME280;16501;51.462;14.346;2023-05-07T04:01:26;100700.22;;;7.48;100.00
29569;BME280;16501;51.462;14.346;2023-05-07T04:03:52;100706.50;;;7.52;100.00
29569;BME280;16501;51.462;14.346;2023-05-07T04:06:17;100711.38;;;7.48;100.00
29569;BME280;16501;51.462;14.346;2023-05-07T04:08:42;100722.34;;;7.55;100.00
29569;BME280;16501;51.462;14.346;2023-05-07T04:11:07;100729.16;;;7.54;100.00
29569;BME280;16501;51.462;14.346;2023-05-07T04:13:33;100720.00;;;7.54;100.00
29569;BME280;16501;51.462;14.346;2023-05-07T04:15:58;100725.22;;;7.52;100.00
29569;BME280;16501;51.462;14.346;2023-05-07T04:18:23;100726.47;;;7.51;100.00
29569;BME280;16501;51.462;14.346;2023-05-07T04:20:49;100722.22;;;7.46;100.00
29569;BME280;16501;51.462;14.346;2023-05-07T04:23:15;100741.44;;;7.57;100.00
29569;BME280;16501;51.462;14.346;2023-05-07T04:25:40;100739.53;;;7.54;100.00
29569;BME280;16501;51.462;14.346;2023-05-07T04:28:06;100737.63;;;7.51;100.00
29569;BME280;16501;51.462;14.346;2023-05-07T04:30:31;100738.31;;;7.55;100.00
29569;BME280;16501;51.462;14.346;2023-05-07T04:32:57;100721.34;;;7.49;100.00
29569;BME280;16501;51.462;14.346;2023-05-07T04:35:22;100733.94;;;7.54;100.00
29569;BME280;16501;51.462;14.346;2023-05-07T04:37:47;100748.06;;;7.63;100.00
29569;BME280;16501;51.462;14.346;2023-05-07T04:40:13;100746.16;;;7.60;100.00
29569;BME280;16501;51.462;14.346;2023-05-07T04:42:38;100746.25;;;7.57;100.00
29569;BME280;16501;51.462;14.346;2023-05-07T04:45:04;100730.47;;;7.50;100.00
29569;BME280;16501;51.462;14.346;2023-05-07T04:47:30;100750.63;;;7.58;100.00
29569;BME280;16501;51.462;14.346;2023-05-07T04:49:55;100746.91;;;7.61;100.00
29569;BME280;16501;51.462;14.346;2023-05-07T04:52:20;100739.19;;;7.52;100.00
29569;BME280;16501;51.462;14.346;2023-05-07T04:54:46;100739.88;;;7.56;100.00
29569;BME280;16501;51.462;14.346;2023-05-07T04:57:11;100747.91;;;7.54;100.00
29569;BME280;16501;51.462;14.346;2023-05-07T04:59:36;100737.63;;;7.51;100.00
29569;BME280;16501;51.462;14.346;2023-05-07T05:02:02;100744.44;;;7.50;100.00
29569;BME280;16501;51.462;14.346;2023-05-07T05:04:29;100743.22;;;7.51;100.00
29569;BME280;16501;51.462;14.346;2023-05-07T05:06:54;100754.19;;;7.58;100.00
29569;BME280;16501;51.462;14.346;2023-05-07T05:09:19;100733.38;;;7.46;100.00
29569;BME280;16501;51.462;14.346;2023-05-07T05:11:44;100766.31;;;7.51;100.00
29569;BME280;16501;51.462;14.346;2023-05-07T05:14:10;100755.25;;;7.48;100.00
29569;BME280;16501;51.462;14.346;2023-05-07T05:16:35;100778.06;;;7.59;100.00
29569;BME280;16501;51.462;14.346;2023-05-07T05:19:01;100779.72;;;7.57;100.00
29569;BME280;16501;51.462;14.346;2023-05-07T05:21:27;100764.50;;;7.45;100.00
29569;BME280;16501;51.462;14.346;2023-05-07T05:23:52;100772.56;;;7.55;100.00
29569;BME280;16501;51.462;14.346;2023-05-07T05:26:17;100781.13;;;7.48;100.00
29569;BME280;16501;51.462;14.346;2023-05-07T05:28:43;100786.72;;;7.48;100.00
29569;BME280;16501;51.462;14.346;2023-05-07T05:31:08;100775.31;;;7.43;100.00
29569;BME280;16501;51.462;14.346;2023-05-07T05:33:34;100781.00;;;7.39;100.00
29569;BME280;16501;51.462;14.346;2023-05-07T05:35:59;100799.72;;;7.55;100.00
29569;BME280;16501;51.462;14.346;2023-05-07T05:38:25;100814.88;;;7.54;100.00
29569;BME280;16501;51.462;14.346;2023-05-07T05:40:51;100820.81;;;7.56;100.00
29569;BME280;16501;51.462;14.346;2023-05-07T05:43:16;100807.75;;;7.53;100.00
29569;BME280;16501;51.462;14.346;2023-05-07T05:45:41;100808.41;;;7.57;100.00
29569;BME280;16501;51.462;14.346;2023-05-07T05:48:06;100801.72;;;7.54;100.00
29569;BME280;16501;51.462;14.346;2023-05-07T05:50:33;100784.72;;;7.49;100.00
29569;BME280;16501;51.462;14.346;2023-05-07T05:53:00;100794.03;;;7.59;100.00
29569;BME280;16501;51.462;14.346;2023-05-07T05:55:26;100785.69;;;7.42;100.00
29569;BME280;16501;51.462;14.346;2023-05-07T05:57:51;100787.25;;;7.43;100.00
29569;BME280;16501;51.462;14.346;2023-05-07T06:00:17;100810.19;;;7.51;100.00
29569;BME280;16501;51.462;14.346;2023-05-07T06:02:42;100790.38;;;7.45;100.00
29569;BME280;16501;51.462;14.346;2023-05-07T06:05:08;100802.06;;;7.57;100.00
29569;BME280;16501;51.462;14.346;2023-05-07T06:07:33;100810.44;;;7.57;100.00
29569;BME280;16501;51.462;14.346;2023-05-07T06:09:59;100769.16;;;7.35;100.00
29569;BME280;16501;51.462;14.346;2023-05-07T06:12:25;100784.47;;;7.43;100.00
29569;BME280;16501;51.462;14.346;2023-05-07T06:14:50;100801.97;;;7.60;100.00
29569;BME280;16501;51.462;14.346;2023-05-07T06:17:16;100804.41;;;7.58;100.00
29569;BME280;16501;51.462;14.346;2023-05-07T06:19:41;100794.13;;;7.55;100.00
29569;BME280;16501;51.462;14.346;2023-05-07T06:22:07;100805.88;;;7.63;100.00
29569;BME280;16501;51.462;14.346;2023-05-07T06:24:32;100806.16;;;7.52;100.00
29569;BME280;16501;51.462;14.346;2023-05-07T06:27:00;100808.75;;;7.59;100.00
29569;BME280;16501;51.462;14.346;2023-05-07T06:29:25;100807.44;;;7.64;100.00
29569;BME280;16501;51.462;14.346;2023-05-07T06:31:54;100821.84;;;7.62;100.00
29569;BME280;16501;51.462;14.346;2023-05-07T06:34:19;100802.25;;;7.49;100.00
29569;BME280;16501;51.462;14.346;2023-05-07T06:36:44;100830.03;;;7.69;100.00
29569;BME280;16501;51.462;14.346;2023-05-07T06:39:10;100842.09;;;7.66;100.00
29569;BME280;16501;51.462;14.346;2023-05-07T06:41:35;100837.03;;;7.61;100.00
29569;BME280;16501;51.462;14.346;2023-05-07T06:44:02;100844.34;;;7.55;100.00
29569;BME280;16501;51.462;14.346;2023-05-07T06:46:28;100849.06;;;7.58;100.00
29569;BME280;16501;51.462;14.346;2023-05-07T06:48:53;100851.09;;;7.58;100.00
29569;BME280;16501;51.462;14.346;2023-05-07T06:51:19;100856.91;;;7.63;100.00
29569;BME280;16501;51.462;14.346;2023-05-07T06:53:44;100832.13;;;7.49;100.00
29569;BME280;16501;51.462;14.346;2023-05-07T06:56:09;100855.50;;;7.55;100.00
29569;BME280;16501;51.462;14.346;2023-05-07T06:58:35;100861.97;;;7.52;100.00
29569;BME280;16501;51.462;14.346;2023-05-07T07:01:00;100849.94;;;7.55;100.00
29569;BME280;16501;51.462;14.346;2023-05-07T07:03:25;100856.38;;;7.52;100.00
29569;BME280;16501;51.462;14.346;2023-05-07T07:05:52;100845.16;;;7.39;100.00
29569;BME280;16501;51.462;14.346;2023-05-07T07:08:18;100859.78;;;7.43;100.00
29569;BME280;16501;51.462;14.346;2023-05-07T07:10:43;100849.97;;;7.39;100.00
29569;BME280;16501;51.462;14.346;2023-05-07T07:13:08;100843.56;;;7.38;100.00
29569;BME280;16501;51.462;14.346;2023-05-07T07:15:33;100817.97;;;7.27;100.00
29569;BME280;16501;51.462;14.346;2023-05-07T07:17:59;100846.28;;;7.42;100.00
29569;BME280;16501;51.462;14.346;2023-05-07T07:20:24;100820.31;;;7.28;100.00
29569;BME280;16501;51.462;14.346;2023-05-07T07:22:49;100860.75;;;7.53;100.00
29569;BME280;16501;51.462;14.346;2023-05-07T07:25:15;100875.13;;;7.51;100.00
29569;BME280;16501;51.462;14.346;2023-05-07T07:27:40;100848.72;;;7.40;100.00
29569;BME280;16501;51.462;14.346;2023-05-07T07:30:05;100826.59;;;7.32;100.00
29569;BME280;16501;51.462;14.346;2023-05-07T07:32:31;100868.41;;;7.49;100.00
29569;BME280;16501;51.462;14.346;2023-05-07T07:34:58;100864.22;;;7.57;100.00
29569;BME280;16501;51.462;14.346;2023-05-07T07:37:23;100850.81;;;7.52;100.00
29569;BME280;16501;51.462;14.346;2023-05-07T07:39:50;100861.09;;;7.55;100.00
29569;BME280;16501;51.462;14.346;2023-05-07T07:42:15;100883.06;;;7.69;100.00
29569;BME280;16501;51.462;14.346;2023-05-07T07:44:41;100871.22;;;7.65;100.00
29569;BME280;16501;51.462;14.346;2023-05-07T07:47:06;100872.25;;;7.55;100.00
29569;BME280;16501;51.462;14.346;2023-05-07T07:49:31;100875.81;;;7.55;100.00
29569;BME280;16501;51.462;14.346;2023-05-07T07:51:57;100862.84;;;7.49;100.00
29569;BME280;16501;51.462;14.346;2023-05-07T07:54:24;100887.00;;;7.72;100.00
29569;BME280;16501;51.462;14.346;2023-05-07T07:56:50;100867.72;;;7.61;100.00
29569;BME280;16501;51.462;14.346;2023-05-07T07:59:15;100876.19;;;7.58;100.00
29569;BME280;16501;51.462;14.346;2023-05-07T08:01:43;100872.69;;;7.53;100.00
29569;BME280;16501;51.462;14.346;2023-05-07T08:04:09;100903.66;;;7.59;100.00
29569;BME280;16501;51.462;14.346;2023-05-07T08:06:34;100894.94;;;7.57;100.00
29569;BME280;16501;51.462;14.346;2023-05-07T08:08:59;100903.84;;;7.68;100.00
29569;BME280;16501;51.462;14.346;2023-05-07T08:11:25;100893.69;;;7.74;100.00
29569;BME280;16501;51.462;14.346;2023-05-07T08:13:50;100912.00;;;7.92;100.00
29569;BME280;16501;51.462;14.346;2023-05-07T08:16:15;100917.56;;;8.08;100.00
29569;BME280;16501;51.462;14.346;2023-05-07T08:18:41;100910.09;;;8.18;100.00
29569;BME280;16501;51.462;14.346;2023-05-07T08:21:06;100896.94;;;8.19;100.00
29569;BME280;16501;51.462;14.346;2023-05-07T08:23:31;100899.88;;;8.28;100.00
29569;BME280;16501;51.462;14.346;2023-05-07T08:25:57;100888.19;;;8.17;100.00
29569;BME280;16501;51.462;14.346;2023-05-07T08:28:22;100906.56;;;8.47;100.00
29569;BME280;16501;51.462;14.346;2023-05-07T08:30:49;100909.38;;;8.60;100.00
29569;BME280;16501;51.462;14.346;2023-05-07T08:33:14;100903.00;;;8.46;100.00
29569;BME280;16501;51.462;14.346;2023-05-07T08:35:40;100894.97;;;8.61;100.00
29569;BME280;16501;51.462;14.346;2023-05-07T08:38:05;100899.44;;;8.59;100.00
29569;BME280;16501;51.462;14.346;2023-05-07T08:40:36;100883.88;;;8.45;100.00
29569;BME280;16501;51.462;14.346;2023-05-07T08:43:02;100902.81;;;8.66;100.00
29569;BME280;16501;51.462;14.346;2023-05-07T08:45:30;100897.69;;;8.78;100.00
29569;BME280;16501;51.462;14.346;2023-05-07T08:47:59;100880.00;;;8.81;100.00
29569;BME280;16501;51.462;14.346;2023-05-07T08:50:25;100890.97;;;8.88;100.00
29569;BME280;16501;51.462;14.346;2023-05-07T08:52:53;100899.25;;;8.92;100.00
29569;BME280;16501;51.462;14.346;2023-05-07T08:55:19;100878.19;;;8.74;100.00
29569;BME280;16501;51.462;14.346;2023-05-07T08:57:45;100893.56;;;8.95;100.00
29569;BME280;16501;51.462;14.346;2023-05-07T09:00:10;100906.41;;;8.93;100.00
29569;BME280;16501;51.462;14.346;2023-05-07T09:02:36;100922.53;;;9.01;100.00
29569;BME280;16501;51.462;14.346;2023-05-07T09:05:02;100915.38;;;9.00;100.00
29569;BME280;16501;51.462;14.346;2023-05-07T09:07:28;100914.25;;;8.98;100.00
29569;BME280;16501;51.462;14.346;2023-05-07T09:09:53;100900.94;;;8.76;100.00
29569;BME280;16501;51.462;14.346;2023-05-07T09:12:23;100908.56;;;8.89;100.00
29569;BME280;16501;51.462;14.346;2023-05-07T09:14:49;100918.81;;;8.92;100.00
29569;BME280;16501;51.462;14.346;2023-05-07T09:17:15;100934.38;;;8.93;100.00
29569;BME280;16501;51.462;14.346;2023-05-07T09:19:41;100935.41;;;8.99;100.00
29569;BME280;16501;51.462;14.346;2023-05-07T09:22:06;100924.78;;;8.94;100.00
29569;BME280;16501;51.462;14.346;2023-05-07T09:24:34;100926.34;;;8.95;100.00
29569;BME280;16501;51.462;14.346;2023-05-07T09:27:02;100928.13;;;8.89;100.00
29569;BME280;16501;51.462;14.346;2023-05-07T09:29:28;100941.00;;;8.99;100.00
29569;BME280;16501;51.462;14.346;2023-05-07T09:31:55;100944.38;;;9.06;100.00
29569;BME280;16501;51.462;14.346;2023-05-07T09:34:20;100933.41;;;8.99;100.00
29569;BME280;16501;51.462;14.346;2023-05-07T09:36:46;100922.97;;;9.00;100.00
29569;BME280;16501;51.462;14.346;2023-05-07T09:39:11;100915.50;;;9.10;100.00
29569;BME280;16501;51.462;14.346;2023-05-07T09:41:45;100925.81;;;9.25;100.00
29569;BME280;16501;51.462;14.346;2023-05-07T09:44:11;100930.38;;;9.45;100.00
29569;BME280;16501;51.462;14.346;2023-05-07T09:46:38;100934.06;;;9.42;100.00
29569;BME280;16501;51.462;14.346;2023-05-07T09:49:06;100935.66;;;9.43;100.00
29569;BME280;16501;51.462;14.346;2023-05-07T09:51:43;100926.69;;;9.22;100.00
29569;BME280;16501;51.462;14.346;2023-05-07T09:54:10;100896.59;;;9.01;100.00
29569;BME280;16501;51.462;14.346;2023-05-07T09:56:36;100942.38;;;9.33;100.00
29569;BME280;16501;51.462;14.346;2023-05-07T09:59:02;100919.75;;;9.14;100.00
29569;BME280;16501;51.462;14.346;2023-05-07T10:01:29;100898.94;;;9.15;100.00
29569;BME280;16501;51.462;14.346;2023-05-07T10:03:55;100947.50;;;9.47;100.00
29569;BME280;16501;51.462;14.346;2023-05-07T10:06:24;100937.31;;;9.53;100.00
29569;BME280;16501;51.462;14.346;2023-05-07T10:08:51;100897.25;;;9.43;100.00
29569;BME280;16501;51.462;14.346;2023-05-07T10:11:18;100935.94;;;9.84;100.00
29569;BME280;16501;51.462;14.346;2023-05-07T10:13:43;100943.22;;;9.81;100.00
29569;BME280;16501;51.462;14.346;2023-05-07T10:16:08;100940.75;;;9.83;100.00
29569;BME280;16501;51.462;14.346;2023-05-07T10:18:34;100944.13;;;9.78;100.00
29569;BME280;16501;51.462;14.346;2023-05-07T10:21:17;100932.91;;;9.78;100.00
29569;BME280;16501;51.462;14.346;2023-05-07T10:23:49;100919.72;;;9.66;99.81
29569;BME280;16501;51.462;14.346;2023-05-07T10:26:15;100947.00;;;9.87;100.00
29569;BME280;16501;51.462;14.346;2023-05-07T10:28:45;100917.69;;;9.79;99.56
29569;BME280;16501;51.462;14.346;2023-05-07T10:33:52;100901.00;;;9.75;96.70
29569;BME280;16501;51.462;14.346;2023-05-07T10:36:20;100949.66;;;10.04;97.46
29569;BME280;16501;51.462;14.346;2023-05-07T10:38:46;100942.84;;;9.92;96.75
29569;BME280;16501;51.462;14.346;2023-05-07T10:41:11;100946.22;;;9.87;96.25
29569;BME280;16501;51.462;14.346;2023-05-07T10:43:41;100944.78;;;9.82;98.72
29569;BME280;16501;51.462;14.346;2023-05-07T10:46:17;100949.72;;;9.78;98.83
29569;BME280;16501;51.462;14.346;2023-05-07T10:51:32;100947.94;;;9.84;100.00
29569;BME280;16501;51.462;14.346;2023-05-07T10:56:34;100925.97;;;9.70;100.00
29569;BME280;16501;51.462;14.346;2023-05-07T11:01:58;100957.19;;;9.94;99.52
29569;BME280;16501;51.462;14.346;2023-05-07T11:04:23;100954.06;;;9.92;98.55
29569;BME280;16501;51.462;14.346;2023-05-07T11:09:54;100950.78;;;10.06;100.00
29569;BME280;16501;51.462;14.346;2023-05-07T11:15:08;100945.56;;;9.82;99.15
29569;BME280;16501;51.462;14.346;2023-05-07T11:17:35;100957.19;;;9.94;98.40
29569;BME280;16501;51.462;14.346;2023-05-07T11:20:16;100964.91;;;10.03;100.00
29569;BME280;16501;51.462;14.346;2023-05-07T11:22:42;100949.34;;;10.02;100.00
29569;BME280;16501;51.462;14.346;2023-05-07T11:25:07;100936.47;;;9.91;99.77
29569;BME280;16501;51.462;14.346;2023-05-07T11:27:32;100948.06;;;9.80;100.00
29569;BME280;16501;51.462;14.346;2023-05-07T11:29:58;100937.75;;;9.77;100.00
29569;BME280;16501;51.462;14.346;2023-05-07T11:32:26;100934.50;;;9.79;100.00
29569;BME280;16501;51.462;14.346;2023-05-07T11:34:52;100955.06;;;9.98;100.00
29569;BME280;16501;51.462;14.346;2023-05-07T11:37:19;100945.47;;;9.86;100.00
29569;BME280;16501;51.462;14.346;2023-05-07T11:39:44;100942.91;;;9.79;100.00
29569;BME280;16501;51.462;14.346;2023-05-07T11:42:28;100958.22;;;9.87;100.00
29569;BME280;16501;51.462;14.346;2023-05-07T11:44:53;100971.22;;;9.81;100.00
29569;BME280;16501;51.462;14.346;2023-05-07T11:47:18;100962.72;;;9.72;100.00
29569;BME280;16501;51.462;14.346;2023-05-07T11:49:48;100945.16;;;9.58;100.00
29569;BME280;16501;51.462;14.346;2023-05-07T11:52:15;100958.16;;;9.52;100.00
29569;BME280;16501;51.462;14.346;2023-05-07T11:54:40;100965.66;;;9.55;100.00
29569;BME280;16501;51.462;14.346;2023-05-07T11:57:05;100948.97;;;9.52;100.00
29569;BME280;16501;51.462;14.346;2023-05-07T11:59:38;100978.06;;;9.80;100.00
29569;BME280;16501;51.462;14.346;2023-05-07T12:02:06;100965.19;;;9.70;100.00
29569;BME280;16501;51.462;14.346;2023-05-07T12:04:31;100970.22;;;9.75;100.00
29569;BME280;16501;51.462;14.346;2023-05-07T12:06:56;100983.09;;;9.85;100.00
29569;BME280;16501;51.462;14.346;2023-05-07T12:09:21;100976.16;;;9.77;100.00
29569;BME280;16501;51.462;14.346;2023-05-07T12:11:47;100980.09;;;9.79;100.00
29569;BME280;16501;51.462;14.346;2023-05-07T12:14:12;100992.75;;;9.84;100.00
29569;BME280;16501;51.462;14.346;2023-05-07T12:16:39;100979.63;;;9.81;100.00
29569;BME280;16501;51.462;14.346;2023-05-07T12:19:05;100981.75;;;9.77;100.00
29569;BME280;16501;51.462;14.346;2023-05-07T12:21:33;100991.38;;;9.89;100.00
29569;BME280;16501;51.462;14.346;2023-05-07T12:23:58;101010.88;;;9.92;100.00
29569;BME280;16501;51.462;14.346;2023-05-07T12:26:24;100993.50;;;9.72;100.00
29569;BME280;16501;51.462;14.346;2023-05-07T12:28:50;100990.38;;;9.70;100.00
29569;BME280;16501;51.462;14.346;2023-05-07T12:31:15;100987.81;;;9.62;100.00
29569;BME280;16501;51.462;14.346;2023-05-07T12:33:41;100998.56;;;9.64;100.00
29569;BME280;16501;51.462;14.346;2023-05-07T12:36:07;101003.16;;;9.71;100.00
29569;BME280;16501;51.462;14.346;2023-05-07T12:38:37;101010.00;;;9.70;100.00
29569;BME280;16501;51.462;14.346;2023-05-07T12:41:03;101008.88;;;9.67;100.00
29569;BME280;16501;51.462;14.346;2023-05-07T12:43:29;101015.59;;;9.70;100.00
29569;BME280;16501;51.462;14.346;2023-05-07T12:45:56;101012.91;;;9.66;100.00
29569;BME280;16501;51.462;14.346;2023-05-07T12:48:22;101015.94;;;9.85;100.00
29569;BME280;16501;51.462;14.346;2023-05-07T12:50:51;101016.69;;;9.85;100.00